createdAt,value
2018-11-14T00:00:38.488Z,8.30
2018-11-14T00:03:07.546Z,8.20
2018-11-14T00:05:36.519Z,8.20
2018-11-14T00:08:05.931Z,8.20
2018-11-14T00:10:34.876Z,8.20
2018-11-14T00:13:03.789Z,8.20
2018-11-14T00:15:32.891Z,8.20
2018-11-14T00:18:01.827Z,8.20
2018-11-14T00:20:30.855Z,8.20
2018-11-14T00:22:59.985Z,8.20
2018-11-14T00:25:29.021Z,8.10
2018-11-14T00:27:57.839Z,8.10
2018-11-14T00:30:27.407Z,8.10
2018-11-14T00:32:56.557Z,8.10
2018-11-14T00:35:25.478Z,8.10
2018-11-14T00:37:54.385Z,8.10
2018-11-14T00:40:24.537Z,8.10
2018-11-14T00:42:53.452Z,8.10
2018-11-14T00:45:23.197Z,8.10
2018-11-14T00:47:52.663Z,8.10
2018-11-14T00:50:22.108Z,8.10
2018-11-14T00:52:51.382Z,8.10
2018-11-14T00:55:21.430Z,8.10
2018-11-14T00:57:51.910Z,8.00
2018-11-14T01:00:22.167Z,8.00
2018-11-14T01:02:51.472Z,8.00
2018-11-14T01:05:20.934Z,8.00
2018-11-14T01:07:49.866Z,8.00
2018-11-14T01:10:20.327Z,8.00
2018-11-14T01:12:49.969Z,8.00
2018-11-14T01:15:21.151Z,7.90
2018-11-14T01:17:50.555Z,8.00
2018-11-14T01:20:21.547Z,7.90
2018-11-14T01:22:50.897Z,7.90
2018-11-14T01:25:20.714Z,7.90
2018-11-14T01:27:49.782Z,7.90
2018-11-14T01:30:20.600Z,7.90
2018-11-14T01:32:49.990Z,7.90
2018-11-14T01:35:19.417Z,7.90
2018-11-14T01:37:48.724Z,7.90
2018-11-14T01:40:20.674Z,7.90
2018-11-14T01:42:51.068Z,7.80
2018-11-14T01:45:20.350Z,7.90
2018-11-14T01:47:49.770Z,7.90
2018-11-14T01:50:19.046Z,7.90
2018-11-14T01:52:48.286Z,7.80
2018-11-14T01:55:20.681Z,7.80
2018-11-14T01:57:49.889Z,7.80
2018-11-14T02:00:20.772Z,7.90
2018-11-14T02:02:49.914Z,7.80
2018-11-14T02:05:19.598Z,7.90
2018-11-14T02:07:48.818Z,7.90
2018-11-14T02:10:37.570Z,7.80
2018-11-14T02:13:07.120Z,7.80
2018-11-14T02:15:36.428Z,7.80
2018-11-14T02:18:06.894Z,7.90
2018-11-14T02:20:35.990Z,7.90
2018-11-14T02:23:05.280Z,7.80
2018-11-14T02:25:35.112Z,7.80
2018-11-14T02:28:08.438Z,7.80
2018-11-14T02:30:37.600Z,7.80
2018-11-14T02:33:06.875Z,7.80
2018-11-14T02:35:35.894Z,7.70
2018-11-14T02:38:05.042Z,7.70
2018-11-14T02:40:34.378Z,7.70
2018-11-14T02:43:03.734Z,7.70
2018-11-14T02:45:32.943Z,7.60
2018-11-14T02:48:02.143Z,7.60
2018-11-14T02:50:31.286Z,7.60
2018-11-14T02:53:01.852Z,7.60
2018-11-14T02:55:31.174Z,7.60
2018-11-14T02:58:00.366Z,7.60
2018-11-14T03:00:29.505Z,7.60
2018-11-14T03:02:58.610Z,7.50
2018-11-14T03:05:27.770Z,7.50
2018-11-14T03:07:56.911Z,7.50
2018-11-14T03:10:26.083Z,7.60
2018-11-14T03:12:55.221Z,7.50
2018-11-14T03:15:24.486Z,7.50
2018-11-14T03:17:53.618Z,7.50
2018-11-14T03:20:23.000Z,7.50
2018-11-14T03:22:52.227Z,7.50
2018-11-14T03:25:21.328Z,7.50
2018-11-14T03:27:50.444Z,7.50
2018-11-14T03:30:19.530Z,7.50
2018-11-14T03:32:48.736Z,7.50
2018-11-14T03:35:17.820Z,7.50
2018-11-14T03:37:47.161Z,7.50
2018-11-14T03:40:17.103Z,7.40
2018-11-14T03:42:47.420Z,7.40
2018-11-14T03:45:16.746Z,7.40
2018-11-14T03:47:45.781Z,7.40
2018-11-14T03:50:14.869Z,7.50
2018-11-14T03:52:43.873Z,7.40
2018-11-14T03:55:12.834Z,7.40
2018-11-14T03:57:42.284Z,7.40
2018-11-14T04:00:13.721Z,7.40
2018-11-14T04:02:43.582Z,7.40
2018-11-14T04:05:13.218Z,7.40
2018-11-14T04:07:42.493Z,7.50
2018-11-14T04:10:12.832Z,7.50
2018-11-14T04:12:42.248Z,7.50
2018-11-14T04:15:12.531Z,7.50
2018-11-14T04:17:41.660Z,7.50
2018-11-14T04:20:12.720Z,7.60
2018-11-14T04:22:42.014Z,7.60
2018-11-14T04:25:13.352Z,7.60
2018-11-14T04:27:43.042Z,7.70
2018-11-14T04:30:14.421Z,7.70
2018-11-14T04:32:44.002Z,7.70
2018-11-14T04:35:14.055Z,7.80
2018-11-14T04:37:43.464Z,7.70
2018-11-14T04:40:14.397Z,7.70
2018-11-14T04:42:43.508Z,7.80
2018-11-14T04:45:14.283Z,7.80
2018-11-14T04:47:43.741Z,7.80
2018-11-14T04:50:17.018Z,7.80
2018-11-14T04:52:46.790Z,7.90
2018-11-14T04:55:18.507Z,7.90
2018-11-14T04:57:47.919Z,7.90
2018-11-14T05:00:17.928Z,8.00
2018-11-14T05:02:48.009Z,8.00
2018-11-14T05:05:19.453Z,8.00
2018-11-14T05:07:48.849Z,8.00
2018-11-14T05:10:20.212Z,8.00
2018-11-14T05:12:49.887Z,8.10
2018-11-14T05:15:21.259Z,8.10
2018-11-14T05:17:50.879Z,8.10
2018-11-14T05:20:20.674Z,8.10
2018-11-14T05:22:50.198Z,8.10
2018-11-14T05:25:19.607Z,8.10
2018-11-14T05:27:50.243Z,8.20
2018-11-14T05:30:20.967Z,8.20
2018-11-14T05:32:50.767Z,8.20
2018-11-14T05:35:19.966Z,8.20
2018-11-14T05:37:49.591Z,8.20
2018-11-14T05:40:20.958Z,8.20
2018-11-14T05:42:50.730Z,8.30
2018-11-14T05:45:23.819Z,8.40
2018-11-14T05:47:52.859Z,8.50
2018-11-14T05:50:22.687Z,8.50
2018-11-14T05:52:51.975Z,8.50
2018-11-14T05:55:21.280Z,8.50
2018-11-14T05:57:50.601Z,8.50
2018-11-14T06:00:25.666Z,8.50
2018-11-14T06:02:54.722Z,8.50
2018-11-14T06:05:24.920Z,8.40
2018-11-14T06:07:54.236Z,8.40
2018-11-14T06:10:23.561Z,8.50
2018-11-14T06:12:52.854Z,8.40
2018-11-14T06:15:22.460Z,8.60
2018-11-14T06:17:52.357Z,8.60
2018-11-14T06:20:22.341Z,8.80
2018-11-14T06:22:52.347Z,8.90
2018-11-14T06:25:27.137Z,8.90
2018-11-14T06:27:57.325Z,8.90
2018-11-14T06:30:28.731Z,8.90
2018-11-14T06:32:58.509Z,8.90
2018-11-14T06:35:45.214Z,8.90
2018-11-14T06:38:19.716Z,8.80
2018-11-14T06:40:48.547Z,8.80
2018-11-14T06:43:17.495Z,8.70
2018-11-14T06:45:46.408Z,8.70
2018-11-14T06:48:15.432Z,8.70
2018-11-14T06:50:44.478Z,8.70
2018-11-14T06:53:13.713Z,8.70
2018-11-14T06:55:42.824Z,8.60
2018-11-14T06:58:11.889Z,8.60
2018-11-14T07:00:41.372Z,8.60
2018-11-14T07:03:10.654Z,8.60
2018-11-14T07:05:40.039Z,8.70
2018-11-14T07:08:09.187Z,8.60
2018-11-14T07:10:38.243Z,8.60
2018-11-14T07:13:09.406Z,8.50
2018-11-14T07:15:39.325Z,8.50
2018-11-14T07:18:09.187Z,8.50
2018-11-14T07:20:39.731Z,8.60
2018-11-14T07:23:09.007Z,8.60
2018-11-14T07:25:38.302Z,8.60
2018-11-14T07:28:07.461Z,8.60
2018-11-14T07:30:37.087Z,8.60
2018-11-14T07:33:10.248Z,8.50
2018-11-14T07:35:39.584Z,8.50
2018-11-14T07:38:40.541Z,8.60
2018-11-14T07:41:11.352Z,8.60
2018-11-14T07:43:40.832Z,8.60
2018-11-14T07:46:10.426Z,8.60
2018-11-14T07:48:42.035Z,8.60
2018-11-14T07:51:11.386Z,8.60
2018-11-14T07:53:40.726Z,8.60
2018-11-14T07:56:09.738Z,8.60
2018-11-14T07:58:38.912Z,8.60
2018-11-14T08:01:08.201Z,8.60
2018-11-14T08:03:37.654Z,8.60
2018-11-14T08:06:07.014Z,8.60
2018-11-14T08:08:35.983Z,8.70
2018-11-14T08:11:05.398Z,8.60
2018-11-14T08:13:35.329Z,8.70
2018-11-14T08:16:04.287Z,8.70
2018-11-14T08:18:33.400Z,8.60
2018-11-14T08:21:04.047Z,8.60
2018-11-14T08:23:33.336Z,8.60
2018-11-14T08:26:02.258Z,8.70
2018-11-14T08:28:31.224Z,8.70
2018-11-14T08:31:00.287Z,8.70
2018-11-14T08:33:29.410Z,8.80
2018-11-14T08:35:58.187Z,8.80
2018-11-14T08:38:26.995Z,8.80
2018-11-14T08:40:56.383Z,8.80
2018-11-14T08:43:25.813Z,8.80
2018-11-14T08:45:54.770Z,8.90
2018-11-14T08:48:23.602Z,8.90
2018-11-14T08:50:52.775Z,8.90
2018-11-14T08:53:21.758Z,8.90
2018-11-14T08:55:50.737Z,8.90
2018-11-14T08:58:19.885Z,8.90
2018-11-14T09:00:48.825Z,8.90
2018-11-14T09:03:17.972Z,9.00
2018-11-14T09:05:47.060Z,9.00
2018-11-14T09:08:15.985Z,9.00
2018-11-14T09:10:45.067Z,9.00
2018-11-14T09:13:16.072Z,9.10
2018-11-14T09:15:45.180Z,9.20
2018-11-14T09:18:14.324Z,9.20
2018-11-14T09:20:43.321Z,9.20
2018-11-14T09:23:12.141Z,9.30
2018-11-14T09:25:41.329Z,9.30
2018-11-14T09:28:10.313Z,9.40
2018-11-14T09:30:39.142Z,9.40
2018-11-14T09:33:09.091Z,9.40
2018-11-14T09:35:37.993Z,9.40
2018-11-14T09:38:06.870Z,9.40
2018-11-14T09:40:36.418Z,9.50
2018-11-14T09:43:05.346Z,9.50
2018-11-14T09:45:34.340Z,9.50
2018-11-14T09:48:03.348Z,9.50
2018-11-14T09:50:32.983Z,9.50
2018-11-14T09:53:06.017Z,9.60
2018-11-14T09:55:34.813Z,9.60
2018-11-14T09:58:03.802Z,9.60
2018-11-14T10:00:33.812Z,9.70
2018-11-14T10:03:17.069Z,9.80
2018-11-14T10:05:45.852Z,9.90
2018-11-14T10:08:14.594Z,10.00
2018-11-14T10:10:43.761Z,10.00
2018-11-14T10:13:12.761Z,10.10
2018-11-14T10:15:41.808Z,10.10
2018-11-14T10:18:10.760Z,10.20
2018-11-14T10:20:40.037Z,10.20
2018-11-14T10:23:09.008Z,10.30
2018-11-14T10:25:38.222Z,10.40
2018-11-14T10:28:07.388Z,10.50
2018-11-14T10:30:36.385Z,10.70
2018-11-14T10:33:05.598Z,10.80
2018-11-14T10:35:34.695Z,11.00
2018-11-14T10:38:03.892Z,11.10
2018-11-14T10:40:33.192Z,11.20
2018-11-14T10:43:02.261Z,11.30
2018-11-14T10:45:31.271Z,11.40
2018-11-14T10:48:00.512Z,11.50
2018-11-14T10:50:29.761Z,11.80
2018-11-14T10:52:58.776Z,12.10
2018-11-14T10:55:27.930Z,12.20
2018-11-14T10:57:56.919Z,12.40
2018-11-14T11:00:31.669Z,12.50
2018-11-14T11:03:07.016Z,12.60
2018-11-14T11:05:41.145Z,12.70
2018-11-14T11:08:15.693Z,12.80
2018-11-14T11:11:53.804Z,13.00
2018-11-14T11:14:27.705Z,13.30
2018-11-14T11:17:01.812Z,13.30
2018-11-14T11:19:31.711Z,13.30
2018-11-14T11:22:00.606Z,13.30
2018-11-14T11:24:29.795Z,13.30
2018-11-14T11:26:58.708Z,13.40
2018-11-14T11:29:27.913Z,13.60
2018-11-14T11:32:00.543Z,13.60
2018-11-14T11:34:29.899Z,13.60
2018-11-14T11:36:58.928Z,13.70
2018-11-14T11:39:28.077Z,13.80
2018-11-14T11:41:56.805Z,13.70
2018-11-14T11:44:25.911Z,13.70
2018-11-14T11:46:54.834Z,13.70
2018-11-14T11:49:23.928Z,13.80
2018-11-14T11:51:53.062Z,13.80
2018-11-14T11:54:21.906Z,13.80
2018-11-14T11:56:51.107Z,13.80
2018-11-14T11:59:20.162Z,13.70
2018-11-14T12:01:49.150Z,13.70
2018-11-14T12:04:18.159Z,13.80
2018-11-14T12:06:47.216Z,13.80
2018-11-14T12:09:16.207Z,13.80
2018-11-14T12:11:46.305Z,13.80
2018-11-14T12:14:15.314Z,13.70
2018-11-14T12:16:44.426Z,13.80
2018-11-14T12:19:13.428Z,13.80
2018-11-14T12:21:42.390Z,13.80
2018-11-14T12:24:16.392Z,13.80
2018-11-14T12:26:45.489Z,13.80
2018-11-14T12:29:14.480Z,13.90
2018-11-14T12:31:43.879Z,14.00
2018-11-14T12:34:13.200Z,14.00
2018-11-14T12:36:42.398Z,14.00
2018-11-14T12:39:11.636Z,14.00
2018-11-14T12:41:40.865Z,14.10
2018-11-14T12:44:09.861Z,14.30
2018-11-14T12:46:39.036Z,14.40
2018-11-14T12:49:08.188Z,14.70
2018-11-14T12:51:37.460Z,14.90
2018-11-14T12:54:06.573Z,15.00
2018-11-14T12:56:35.761Z,15.10
2018-11-14T12:59:04.987Z,15.30
2018-11-14T13:01:34.107Z,15.30
2018-11-14T13:04:03.451Z,15.40
2018-11-14T13:06:33.058Z,15.50
2018-11-14T13:09:02.420Z,15.60
2018-11-14T13:11:31.652Z,15.70
2018-11-14T13:14:00.725Z,15.90
2018-11-14T13:16:29.787Z,16.20
2018-11-14T13:18:58.857Z,16.30
2018-11-14T13:21:29.243Z,16.30
2018-11-14T13:23:58.318Z,16.40
2018-11-14T13:26:27.281Z,16.40
2018-11-14T13:28:56.514Z,16.30
2018-11-14T13:31:25.496Z,16.20
2018-11-14T13:33:54.433Z,16.10
2018-11-14T13:36:23.433Z,16.10
2018-11-14T13:38:52.570Z,16.00
2018-11-14T13:41:21.675Z,15.90
2018-11-14T13:43:50.905Z,15.90
2018-11-14T13:46:19.944Z,15.90
2018-11-14T13:48:49.253Z,15.90
2018-11-14T13:51:18.593Z,15.80
2018-11-14T13:53:47.839Z,15.80
2018-11-14T13:56:17.190Z,15.70
2018-11-14T13:58:46.506Z,15.60
2018-11-14T14:01:15.602Z,15.60
2018-11-14T14:03:44.979Z,15.50
2018-11-14T14:06:14.352Z,15.50
2018-11-14T14:08:43.549Z,15.50
2018-11-14T14:11:12.618Z,15.50
2018-11-14T14:13:46.979Z,15.50
2018-11-14T14:16:16.115Z,15.40
2018-11-14T14:18:45.389Z,15.40
2018-11-14T14:21:14.618Z,15.30
2018-11-14T14:23:43.694Z,15.30
2018-11-14T14:26:12.689Z,15.30
2018-11-14T14:28:41.666Z,15.20
2018-11-14T14:31:10.790Z,15.20
2018-11-14T14:33:40.080Z,15.10
2018-11-14T14:36:09.270Z,15.10
2018-11-14T14:38:38.281Z,15.00
2018-11-14T14:41:07.573Z,15.00
2018-11-14T14:43:36.763Z,14.90
2018-11-14T14:46:06.183Z,14.90
2018-11-14T14:48:35.641Z,14.90
2018-11-14T14:51:04.677Z,14.90
2018-11-14T14:53:33.880Z,14.90
2018-11-14T14:56:03.137Z,14.80
2018-11-14T14:58:32.445Z,14.80
2018-11-14T15:01:01.565Z,14.80
2018-11-14T15:03:30.701Z,14.70
2018-11-14T15:05:59.769Z,14.70
2018-11-14T15:08:29.248Z,14.70
2018-11-14T15:10:58.478Z,14.60
2018-11-14T15:13:27.730Z,14.50
2018-11-14T15:15:56.810Z,14.50
2018-11-14T15:18:25.911Z,14.40
2018-11-14T15:20:55.092Z,14.40
2018-11-14T15:23:24.251Z,14.30
2018-11-14T15:25:53.679Z,14.30
2018-11-14T15:28:22.922Z,14.20
2018-11-14T15:30:52.127Z,14.20
2018-11-14T15:33:20.988Z,14.10
2018-11-14T15:35:50.267Z,14.00
2018-11-14T15:38:19.406Z,14.00
2018-11-14T15:40:48.489Z,13.90
2018-11-14T15:43:18.313Z,13.90
2018-11-14T15:45:47.483Z,13.80
2018-11-14T15:48:21.872Z,13.80
2018-11-14T15:50:50.962Z,13.70
2018-11-14T15:53:20.464Z,13.70
2018-11-14T15:55:49.588Z,13.60
2018-11-14T15:58:18.673Z,13.50
2018-11-14T16:00:47.663Z,13.50
2018-11-14T16:03:16.996Z,13.40
2018-11-14T16:05:46.163Z,13.40
2018-11-14T16:08:15.237Z,13.30
2018-11-14T16:10:44.438Z,13.30
2018-11-14T16:13:13.810Z,13.20
2018-11-14T16:15:42.825Z,13.20
2018-11-14T16:18:12.030Z,13.10
2018-11-14T16:20:41.149Z,13.00
2018-11-14T16:23:10.200Z,13.00
2018-11-14T16:25:39.400Z,12.90
2018-11-14T16:28:08.712Z,12.90
2018-11-14T16:30:38.458Z,12.80
2018-11-14T16:33:08.757Z,12.80
2018-11-14T16:35:38.162Z,12.70
2018-11-14T16:38:07.686Z,12.60
2018-11-14T16:40:36.900Z,12.60
2018-11-14T16:43:07.272Z,12.50
2018-11-14T16:45:36.410Z,12.50
2018-11-14T16:48:05.867Z,12.40
2018-11-14T16:50:35.267Z,12.40
2018-11-14T16:53:06.876Z,12.30
2018-11-14T16:55:36.083Z,12.30
2018-11-14T16:58:05.476Z,12.20
2018-11-14T17:00:34.759Z,12.20
2018-11-14T17:03:04.240Z,12.10
2018-11-14T17:05:33.783Z,12.10
2018-11-14T17:08:02.967Z,12.00
2018-11-14T17:10:32.055Z,12.00
2018-11-14T17:13:02.204Z,12.00
2018-11-14T17:15:31.836Z,11.90
2018-11-14T17:18:01.221Z,11.90
2018-11-14T17:20:30.698Z,11.90
2018-11-14T17:22:59.822Z,11.80
2018-11-14T17:25:29.230Z,11.80
2018-11-14T17:27:58.535Z,11.70
2018-11-14T17:30:28.466Z,11.70
2018-11-14T17:32:57.920Z,11.70
2018-11-14T17:35:27.096Z,11.60
2018-11-14T17:37:56.507Z,11.60
2018-11-14T17:40:27.941Z,11.60
2018-11-14T17:42:57.492Z,11.50
2018-11-14T17:45:30.171Z,11.50
2018-11-14T17:47:59.607Z,11.50
2018-11-14T17:50:31.859Z,11.40
2018-11-14T17:53:02.357Z,11.40
2018-11-14T17:55:31.875Z,11.40
2018-11-14T17:58:02.705Z,11.40
2018-11-14T18:00:32.676Z,11.30
2018-11-14T18:03:03.266Z,11.30
2018-11-14T18:05:33.022Z,11.30
2018-11-14T18:08:02.453Z,11.30
2018-11-14T18:10:32.308Z,11.30
2018-11-14T18:13:02.725Z,11.30
2018-11-14T18:15:31.882Z,11.20
2018-11-14T18:18:01.200Z,11.20
2018-11-14T18:20:32.216Z,11.20
2018-11-14T18:23:02.076Z,11.20
2018-11-14T18:25:31.557Z,11.20
2018-11-14T18:28:00.902Z,11.10
2018-11-14T18:30:31.047Z,11.10
2018-11-14T18:33:01.432Z,11.10
2018-11-14T18:35:30.720Z,11.10
2018-11-14T18:38:00.731Z,11.00
2018-11-14T18:40:34.324Z,11.00
2018-11-14T18:43:03.827Z,11.00
2018-11-14T18:45:35.557Z,11.00
2018-11-14T18:48:07.437Z,10.90
2018-11-14T18:50:37.457Z,10.90
2018-11-14T18:53:06.869Z,10.90
2018-11-14T18:55:36.467Z,10.90
2018-11-14T18:58:06.408Z,10.90
2018-11-14T19:00:38.253Z,10.80
2018-11-14T19:03:09.977Z,10.80
2018-11-14T19:05:42.402Z,10.80
2018-11-14T19:08:14.217Z,10.80
2018-11-14T19:10:48.188Z,10.70
2018-11-14T19:13:18.071Z,10.70
2018-11-14T19:15:47.276Z,10.70
2018-11-14T19:18:16.642Z,10.70
2018-11-14T19:20:46.089Z,10.70
2018-11-14T19:23:15.626Z,10.60
2018-11-14T19:25:44.989Z,10.60
2018-11-14T19:28:17.803Z,10.60
2018-11-14T19:30:47.218Z,10.60
2018-11-14T19:33:16.675Z,10.50
2018-11-14T19:35:46.077Z,10.50
2018-11-14T19:38:15.879Z,10.40
2018-11-14T19:40:45.315Z,10.40
2018-11-14T19:43:14.624Z,10.40
2018-11-14T19:45:43.770Z,10.40
2018-11-14T19:48:13.830Z,10.30
2018-11-14T19:50:43.233Z,10.30
2018-11-14T19:53:13.066Z,10.20
2018-11-14T19:55:42.767Z,10.20
2018-11-14T19:58:12.225Z,10.20
2018-11-14T20:00:41.615Z,10.20
2018-11-14T20:03:11.416Z,10.10
2018-11-14T20:05:44.444Z,10.10
2018-11-14T20:08:14.012Z,10.10
2018-11-14T20:10:43.411Z,10.00
2018-11-14T20:13:13.215Z,10.00
2018-11-14T20:15:43.858Z,10.00
2018-11-14T20:18:13.169Z,9.90
2018-11-14T20:20:42.637Z,9.90
2018-11-14T20:23:11.767Z,9.90
2018-11-14T20:25:41.077Z,9.80
2018-11-14T20:28:10.636Z,9.80
2018-11-14T20:30:40.532Z,9.80
2018-11-14T20:33:11.293Z,9.80
2018-11-14T20:35:40.654Z,9.70
2018-11-14T20:38:09.909Z,9.70
2018-11-14T20:40:42.063Z,9.60
2018-11-14T20:43:11.495Z,9.60
2018-11-14T20:45:41.343Z,9.60
2018-11-14T20:48:12.515Z,9.60
2018-11-14T20:50:41.779Z,9.50
2018-11-14T20:53:11.162Z,9.50
2018-11-14T20:55:40.445Z,9.50
2018-11-14T20:58:09.947Z,9.50
2018-11-14T21:00:39.544Z,9.40
2018-11-14T21:03:09.116Z,9.40
2018-11-14T21:05:38.466Z,9.40
2018-11-14T21:08:07.799Z,9.40
2018-11-14T21:10:37.014Z,9.40
2018-11-14T21:13:06.687Z,9.30
2018-11-14T21:15:37.338Z,9.30
2018-11-14T21:18:07.057Z,9.30
2018-11-14T21:20:38.446Z,9.20
2018-11-14T21:23:07.880Z,9.20
2018-11-14T21:25:37.047Z,9.20
2018-11-14T21:28:06.541Z,9.20
2018-11-14T21:30:35.900Z,9.10
2018-11-14T21:33:05.585Z,9.10
2018-11-14T21:35:36.031Z,9.10
2018-11-14T21:38:06.439Z,9.10
2018-11-14T21:40:35.844Z,9.00
2018-11-14T21:43:05.417Z,9.00
2018-11-14T21:45:34.654Z,9.00
2018-11-14T21:48:09.206Z,9.00
2018-11-14T21:50:38.539Z,8.90
2018-11-14T21:53:07.697Z,8.90
2018-11-14T21:55:39.501Z,8.90
2018-11-14T21:58:08.836Z,8.80
2018-11-14T22:00:38.945Z,8.80
2018-11-14T22:03:10.023Z,8.80
2018-11-14T22:05:39.561Z,8.70
2018-11-14T22:08:08.858Z,8.70
2018-11-14T22:10:38.185Z,8.70
2018-11-14T22:13:07.947Z,8.70
2018-11-14T22:15:37.168Z,8.70
2018-11-14T22:18:06.281Z,8.60
2018-11-14T22:20:35.512Z,8.60
2018-11-14T22:23:05.758Z,8.60
2018-11-14T22:25:34.825Z,8.50
2018-11-14T22:28:03.926Z,8.50
2018-11-14T22:30:33.729Z,8.50
2018-11-14T22:33:02.650Z,8.50
2018-11-14T22:35:32.744Z,8.40
2018-11-14T22:38:01.776Z,8.40
2018-11-14T22:40:31.604Z,8.40
2018-11-14T22:43:00.625Z,8.40
2018-11-14T22:45:31.517Z,8.40
2018-11-14T22:48:00.349Z,8.40
2018-11-14T22:50:30.508Z,8.30
2018-11-14T22:52:59.291Z,8.40
2018-11-14T22:55:28.202Z,8.30
2018-11-14T22:57:57.166Z,8.30
2018-11-14T23:00:32.882Z,8.30
2018-11-14T23:03:03.012Z,8.30
2018-11-14T23:05:31.951Z,8.30
2018-11-14T23:08:01.246Z,8.30
2018-11-14T23:10:30.770Z,8.20
2018-11-14T23:12:59.704Z,8.20
2018-11-14T23:15:33.481Z,8.20
2018-11-14T23:18:06.369Z,8.20
2018-11-14T23:20:35.633Z,8.20
2018-11-14T23:23:04.954Z,8.20
2018-11-14T23:25:34.251Z,8.10
2018-11-14T23:28:03.473Z,8.10
2018-11-14T23:30:32.574Z,8.10
2018-11-14T23:33:01.779Z,8.10
2018-11-14T23:35:32.724Z,8.10
2018-11-14T23:38:05.124Z,8.00
2018-11-14T23:40:34.362Z,8.00
2018-11-14T23:43:03.415Z,8.00
2018-11-14T23:45:32.445Z,8.00
2018-11-14T23:48:01.578Z,8.00
2018-11-14T23:50:32.766Z,7.90
2018-11-14T23:53:02.810Z,7.90
2018-11-14T23:55:33.195Z,7.90
2018-11-14T23:58:02.353Z,7.90
